x

Delaware Bay 26 Nm Southeast Of Cape May, Nj (44009) Wave Buoy

10:50pm - Mon 27th Jul 2015 All times are EDT. -4 hours from GMT.

  • Sig Wave height 2.0ft
  • Swell Direction
  • Peak Period 10s
  • Average Period 5s
  • Wind
    9mph, 11mph gusts
  • Sea Temp 78°f
  • Air Temp 78°f
  • Sea Pressure 1016.7mb
  • Delaware Bay 26 Nm Southeast Of Cape May, Nj
  • Delaware Bay 26 Nm Southeast Of Cape May, Nj

More Historic Weather Station data

Upgrade to MSW Pro to gain access to the past 30 days of data for over 8000 Wavebouys and Weather Stations around the globe.

Join Pro

Comparision Forecast

View Surf forecast
   
Mon 07/27 10:50pm 2ft 10s 5s 9 11 mph 1016.7mb 78f 78f
9:50pm 2ft 11s 5s 9 11 mph 1017.1mb - 78f
8:50pm 2ft 11s 4s 11 13 mph 1016mb - 78f
7:50pm 2ft 11s 4s 11 13 mph 1016.1mb - 78f
6:50pm 2ft 10s 5s 13 16 mph 1015.5mb - 78f
5:50pm 2ft 11s 5s 11
mph
1016mb - 78f
4:50pm 2ft 11s 5s 9 11 mph 1016.2mb - 78f
3:50pm 2ft 11s 5s 11
mph
1016.7mb - 78f
2:50pm 2ft 11s 5s 9 11 mph 1016.8mb - 77f
1:50pm 2ft 11s 5s 7 9 mph 1017.1mb - 76f
12:50pm 2.5ft 11s 5s 4 7 mph 1017.4mb - 76f
11:50am 2.5ft 11s 5s 7
mph
1017.7mb - 75f
10:50am 2.5ft 11s 4s 9 11 mph 1017.5mb - 74f
9:50am 2.5ft 11s 4s 11 13 mph 1017.5mb - 74f
8:50am 2.5ft 11s 5s 13 16 mph 1017.3mb - 73f
7:50am 2.5ft 11s  -  11 16 mph 1017.1mb - 74f
6:50am 2.5ft 11s 4s 9
mph
1016.6mb - 78f
5:50am 2.5ft 11s 4s 11 13 mph 1015.8mb - 78f
4:50am 2.5ft 11s 4s 13 16 mph 1015.1mb - 78f
3:50am 2.5ft 11s 4s 13 16 mph 1015.3mb - 78f
2:50am 2.5ft 11s 4s 13 16 mph 1015.7mb - 78f
1:50am 2.5ft 11s 4s 13
mph
1016mb - 78f
12:50am 2.5ft 11s 4s 16 18 mph 1016.1mb - 78f
Sun 07/26 11:50pm 2.5ft 3s 4s 16 18 mph 1016.2mb - 78f
10:50pm 2.5ft 11s 4s 13 16 mph 1016.8mb - 78f
9:50pm 2.5ft 11s 5s 13 16 mph 1016.7mb - 78f
8:50pm 2.5ft 11s 4s 13 16 mph 1016.5mb - 78f
7:50pm 2.5ft 11s 4s 13 18 mph 1016.6mb - 78f
6:50pm 2.5ft 12s 4s 13 16 mph 1016.2mb - 78f
5:50pm 2.5ft 11s 4s 13 18 mph 1016.2mb - 78f
4:50pm 2ft 11s 4s 13 16 mph 1016.5mb - 78f
3:50pm 2ft 11s 5s 13 16 mph 1016.8mb - 78f
2:50pm 2ft 12s 5s 13 16 mph 1016.9mb - 78f
1:50pm 2ft 12s 5s 13
mph
1017.3mb - 78f
12:50pm 2ft 11s 5s 11 13 mph 1017.5mb - 77f
11:50am 2ft 11s 5s 11 13 mph 1017.6mb - 77f
10:50am 2ft 11s 6s 9 11 mph 1017.5mb - 77f
9:50am 2ft 12s 6s 9 11 mph 1017.3mb - 77f
8:50am 2.5ft 11s 5s 7 9 mph 1017.4mb - 77f
7:50am 2ft 11s 5s 11
mph
1017mb - 77f
6:50am 2ft 11s 5s 11
mph
1016.6mb - 77f
5:50am 2.5ft 11s 5s 11 13 mph 1015.9mb - 77f
4:50am 2.5ft 12s 5s 13
mph
1015.7mb - 77f
3:50am 2ft 9s 5s 11 13 mph 1015.9mb - 77f
2:50am 2ft 11s 5s 11 13 mph 1016.1mb - 77f
1:50am 2ft 11s 6s 11 13 mph 1016.4mb - 78f
12:50am 2ft 9s 6s 11 13 mph 1016.6mb - 78f
Sat 07/25 11:50pm 2ft 12s 6s 9 11 mph 1016.8mb - 78f
10:50pm 2ft 11s 6s 9
mph
1016.7mb - 78f
9:50pm 2ft 11s 6s 9 11 mph 1016.4mb - 78f
8:50pm 2ft 11s 6s 9 11 mph 1015.9mb - 78f
7:50pm 2ft 11s 6s 9 11 mph 1016mb - 79f
6:50pm 2ft 11s 7s 9 11 mph 1015.8mb - 79f
5:50pm 2ft 11s 7s 9 11 mph 1016mb - 79f
4:50pm 2ft 12s 7s 9
mph
1016.3mb - 79f
3:50pm 1.6ft 11s 7s 7 9 mph 1016.2mb - 78f
2:50pm 2ft 12s 7s 4 7 mph 1016.6mb - 78f
1:50pm 2ft 11s 7s 2 4 mph 1016.5mb - 78f
12:50pm  -   -   -   -  2 mph 1016.7mb - 77f
11:50am 2ft 12s 6s 2
mph
1017mb - 76f
10:50am 1.6ft 12s 6s 4
mph
1016.9mb - 76f
9:50am 1.6ft 12s 5s 7
mph
1016.3mb - 76f
8:50am 1.6ft 13s 5s 9
mph
1016.1mb - 76f
7:50am 1.6ft 11s 5s 11 13 mph 1016.1mb - 76f
6:50am 1.6ft 12s 5s 11
mph
1015.7mb - 75f
5:50am 2ft 12s 5s 9 11 mph 1015mb - 75f
3:50am 1.6ft 12s 6s 9 11 mph 1014.2mb - 76f
2:50am 1.6ft 12s 6s 7 9 mph 1014.4mb - 77f
1:50am 1.6ft 12s 7s 7
mph
1014.3mb - 77f
12:50am 1.6ft 11s 6s 7
mph
1014.5mb - 78f
Fri 07/24 11:50pm 1.6ft 7s 6s 4 7 mph 1014.9mb - 78f
10:50pm 1.6ft 12s 5s 2 4 mph 1014.9mb - 78f
9:50pm 1.6ft 12s 5s 4
mph
1015mb - 78f
8:50pm 1.6ft 7s 4s 2 4 mph 1014.4mb - 78f
7:50pm 2ft 7s 4s  -  2 mph 1014.1mb - 80f
6:50pm 1.6ft 7s 5s 4
mph
1014mb - 79f
5:50pm 1.6ft 7s 4s 2
mph
1013.5mb - 80f
4:50pm 2ft 12s 5s 2 4 mph 1013.5mb - 78f
3:50pm 1.6ft 7s 6s 2 4 mph 1013.7mb - 77f
2:50pm 1.6ft 7s 6s 7 9 mph 1014mb - 76f
1:50pm 1.3ft 6s 6s  -  2 mph 1014.2mb - 78f
12:50pm 1.3ft 13s 6s 4
mph
1014.6mb - 76f
11:50am 1.3ft 7s 6s 2 4 mph 1014.7mb - 76f
10:50am 1.3ft 7s 5s 2 4 mph 1014.8mb - 76f
9:50am 1.3ft 9s 5s 9 11 mph 1014.7mb - 76f
8:50am 1.3ft 7s 5s 7
mph
1014.4mb - 76f
7:50am 1.3ft 7s 5s 7
mph
1014.4mb - 76f
6:50am 1.6ft 7s 6s 9
mph
1014.4mb - 76f
5:50am 1.6ft 7s 6s 9
mph
1013.8mb - 76f
4:50am 1.6ft 7s 6s 7 9 mph 1013.7mb - 76f